Time;durP1;ratioP1;P1;durP2;ratioP2;P2;SDS_P1;SDS_P2;PMS_P1;PMS_P2;Temp;Humidity;BMP_temperature;BMP_pressure;BME280_temperature;BME280_humidity;BME280_pressure;Samples;Min_cycle;Max_cycle;Signal;HPM_P1;HPM_P2
2023/08/12 00:01:03;;;;;;;5.82;3.15;;;;;;;22.90;63.78;101719.19;5006975;28;20116;-67
2023/08/12 00:03:29;;;;;;;5.30;2.90;;;;;;;22.89;63.85;101720.16;5006920;28;20497;-68
2023/08/12 00:05:56;;;;;;;5.47;3.00;;;;;;;22.88;63.48;101718.50;5006395;28;20470;-67
2023/08/12 00:08:21;;;;;;;5.95;2.80;;;;;;;22.88;63.79;101715.84;5005397;28;20030;-69
2023/08/12 00:10:47;;;;;;;4.65;2.80;;;;;;;22.89;63.68;101725.47;5007054;28;20079;-68
2023/08/12 00:13:14;;;;;;;5.40;3.03;;;;;;;22.88;63.51;101721.16;5006565;28;20034;-68
2023/08/12 00:15:40;;;;;;;6.20;3.00;;;;;;;22.89;63.46;101722.81;5005463;28;20696;-69
2023/08/12 00:18:06;;;;;;;4.38;3.08;;;;;;;22.88;63.79;101705.22;5006444;28;20030;-67
2023/08/12 00:20:32;;;;;;;5.93;3.08;;;;;;;22.87;63.65;101704.34;5006377;28;20493;-68
2023/08/12 00:22:57;;;;;;;5.18;2.70;;;;;;;22.88;63.73;101699.91;5006994;28;20034;-67
2023/08/12 00:25:22;;;;;;;5.97;3.17;;;;;;;22.87;63.45;101700.84;5005293;28;20124;-66
2023/08/12 00:27:47;;;;;;;5.13;3.05;;;;;;;22.88;63.48;101702.56;5005724;28;20475;-67
2023/08/12 00:30:13;;;;;;;5.38;2.95;;;;;;;22.89;63.77;101696.25;5006526;28;20037;-68
2023/08/12 00:32:38;;;;;;;4.82;3.28;;;;;;;22.87;63.77;101696.38;5006409;28;20030;-67
2023/08/12 00:35:05;;;;;;;5.38;3.20;;;;;;;22.88;63.36;101686.59;5006536;28;20045;-67
2023/08/12 00:37:30;;;;;;;5.50;3.00;;;;;;;22.87;63.81;101690.22;5006205;28;20157;-68
2023/08/12 00:39:55;;;;;;;5.65;3.30;;;;;;;22.88;63.56;101690.09;5006638;28;20124;-67
2023/08/12 00:42:21;;;;;;;4.65;2.92;;;;;;;22.89;63.29;101696.25;5004420;28;20398;-68
2023/08/12 00:44:46;;;;;;;5.40;3.00;;;;;;;22.87;63.59;101683.09;5006273;28;20398;-67
2023/08/12 00:47:12;;;;;;;5.38;2.88;;;;;;;22.89;63.59;101685.63;5005904;28;20030;-68
2023/08/12 00:49:39;;;;;;;5.63;3.03;;;;;;;22.88;63.67;101679.47;5006354;28;20514;-68
2023/08/12 00:52:05;;;;;;;5.53;3.15;;;;;;;22.88;63.41;101678.63;5006537;28;20040;-69
2023/08/12 00:54:30;;;;;;;4.60;2.88;;;;;;;22.88;63.77;101682.13;5008750;28;20030;-67
2023/08/12 00:56:55;;;;;;;5.50;3.00;;;;;;;22.88;63.59;101675.97;5010273;28;20034;-67
2023/08/12 00:59:22;;;;;;;5.05;2.85;;;;;;;22.87;63.85;101669.81;5010249;28;20516;-67
2023/08/12 01:01:48;;;;;;;5.15;3.28;;;;;;;22.88;63.24;101674.16;5010015;28;20482;-69
2023/08/12 01:04:13;;;;;;;6.75;3.45;;;;;;;22.87;63.32;101674.28;5009988;28;20040;-67
2023/08/12 01:06:39;;;;;;;5.75;3.33;;;;;;;22.86;63.27;101670.78;5009715;28;20030;-68
2023/08/12 01:09:05;;;;;;;5.35;3.10;;;;;;;22.88;63.55;101665.34;5009899;28;20595;-67
2023/08/12 01:11:52;;;;;;;5.82;3.17;;;;;;;22.85;63.75;101662.97;5009769;28;20479;-68
2023/08/12 01:14:41;;;;;;;5.03;2.95;;;;;;;22.86;63.77;101660.16;5009726;28;20065;-68
2023/08/12 01:17:11;;;;;;;5.00;2.90;;;;;;;22.86;63.39;101652.19;5009414;28;20030;-69
2023/08/12 01:19:38;;;;;;;5.50;2.97;;;;;;;22.87;63.78;101661.00;5009684;28;21374;-69
2023/08/12 01:22:07;;;;;;;5.30;3.03;;;;;;;22.87;63.33;101653.03;5009694;28;20030;-69
2023/08/12 01:24:41;;;;;;;5.30;2.80;;;;;;;22.86;63.30;101638.91;5010102;28;20042;-68
2023/08/12 01:27:07;;;;;;;4.68;2.97;;;;;;;22.87;63.44;101640.56;5009501;28;20041;-69
2023/08/12 01:29:35;;;;;;;5.10;3.20;;;;;;;22.87;63.44;101642.41;5009453;28;20060;-67
2023/08/12 01:32:23;;;;;;;4.80;2.70;;;;;;;22.86;63.48;101635.38;5009661;28;20104;-69
2023/08/12 01:35:05;;;;;;;5.40;3.72;;;;;;;22.85;63.74;101631.06;5009689;28;20033;-68
2023/08/12 01:37:33;;;;;;;4.40;2.97;;;;;;;22.86;63.59;101627.41;5007673;28;20029;-68
2023/08/12 01:40:04;;;;;;;5.40;3.20;;;;;;;22.86;63.60;101622.97;5009570;28;20041;-68
2023/08/12 01:42:32;;;;;;;5.78;3.38;;;;;;;22.86;63.25;101616.78;5009283;28;20548;-68
2023/08/12 01:44:57;;;;;;;5.78;3.00;;;;;;;22.86;63.37;101619.44;5008945;28;20046;-67
2023/08/12 01:47:22;;;;;;;6.20;3.20;;;;;;;22.86;63.51;101624.75;5008955;28;20045;-69
2023/08/12 01:49:48;;;;;;;4.95;3.20;;;;;;;22.86;63.59;101622.97;5009190;28;20109;-68
2023/08/12 01:52:13;;;;;;;5.40;3.08;;;;;;;22.86;63.64;101617.66;5009278;28;20054;-67
2023/08/12 01:54:38;;;;;;;4.65;3.17;;;;;;;22.85;63.38;101618.63;5008525;28;20026;-68
2023/08/12 01:57:05;;;;;;;5.78;3.22;;;;;;;22.86;63.58;101611.47;5007640;28;20026;-68
2023/08/12 01:59:31;;;;;;;6.05;3.20;;;;;;;22.85;63.26;101618.63;5008837;28;20032;-68
2023/08/12 02:01:57;;;;;;;6.07;3.13;;;;;;;22.85;63.39;101610.63;5008608;28;20029;-68
2023/08/12 02:04:22;;;;;;;4.97;3.22;;;;;;;22.86;63.57;101611.47;5006030;28;20065;-68
2023/08/12 02:06:49;;;;;;;5.03;3.25;;;;;;;22.87;63.59;101610.50;5008512;28;20037;-68
2023/08/12 02:09:14;;;;;;;6.00;3.20;;;;;;;22.86;63.70;101608.81;5009021;28;20037;-69
2023/08/12 02:11:40;;;;;;;5.22;3.03;;;;;;;22.86;63.60;101604.34;5008659;28;20034;-68
2023/08/12 02:14:05;;;;;;;6.00;3.10;;;;;;;22.85;63.25;101604.50;5008888;28;20675;-69
2023/08/12 02:16:30;;;;;;;6.18;3.22;;;;;;;22.87;63.17;101605.19;5008660;28;20116;-69
2023/08/12 02:18:56;;;;;;;5.57;3.22;;;;;;;22.87;63.64;101602.53;5008636;28;20038;-68
2023/08/12 02:21:21;;;;;;;6.00;3.35;;;;;;;22.85;63.38;101607.97;5008272;28;20375;-68
2023/08/12 02:23:46;;;;;;;4.70;3.15;;;;;;;22.86;63.50;101595.53;5008484;28;20040;-69
2023/08/12 02:26:12;;;;;;;4.88;2.92;;;;;;;22.82;63.41;101587.00;5008622;28;20394;-68
2023/08/12 02:28:37;;;;;;;4.85;2.88;;;;;;;22.85;63.21;101589.38;5008401;28;20045;-68
2023/08/12 02:31:02;;;;;;;5.63;3.35;;;;;;;22.86;63.14;101587.56;5008547;28;20040;-69
2023/08/12 02:33:28;;;;;;;5.43;3.38;;;;;;;22.85;63.60;101586.72;5007382;28;20034;-69
2023/08/12 02:35:54;;;;;;;5.10;2.88;;;;;;;22.86;63.57;101576.91;5008357;28;20080;-69
2023/08/12 02:38:20;;;;;;;4.75;2.95;;;;;;;22.87;63.26;101586.59;5008160;28;20042;-69
2023/08/12 02:40:48;;;;;;;5.40;3.10;;;;;;;22.85;63.74;101581.41;5007788;28;20064;-69
2023/08/12 02:43:14;;;;;;;4.85;2.97;;;;;;;22.87;63.51;101581.28;5008164;28;20475;-69
2023/08/12 02:45:39;;;;;;;5.25;2.75;;;;;;;22.86;63.41;101568.94;5007540;28;20132;-67
2023/08/12 02:48:05;;;;;;;4.77;2.73;;;;;;;22.84;63.55;101569.09;5008172;28;20398;-68
2023/08/12 02:50:30;;;;;;;5.68;3.30;;;;;;;22.85;63.48;101562.81;5007818;28;20279;-68
2023/08/12 02:52:55;;;;;;;5.53;3.35;;;;;;;22.85;63.22;101564.63;5007637;28;20516;-68
2023/08/12 02:55:21;;;;;;;6.50;3.08;;;;;;;22.86;63.25;101564.50;5007377;28;20034;-68
2023/08/12 02:57:46;;;;;;;5.80;3.20;;;;;;;22.85;63.20;101559.31;5007531;28;20044;-68
2023/08/12 03:00:12;;;;;;;5.22;3.10;;;;;;;22.86;63.00;101558.31;5007769;28;20268;-69
2023/08/12 03:02:37;;;;;;;6.40;3.15;;;;;;;22.85;63.00;101552.19;5007610;28;20030;-68
2023/08/12 03:05:03;;;;;;;4.93;2.95;;;;;;;22.86;63.10;101558.31;5007559;28;20044;-68
2023/08/12 03:07:28;;;;;;;4.85;2.85;;;;;;;22.86;62.98;101555.66;5007486;28;20509;-70
2023/08/12 03:09:53;;;;;;;5.00;3.30;;;;;;;22.86;63.30;101553.00;5007961;28;20441;-68
2023/08/12 03:12:19;;;;;;;4.82;2.80;;;;;;;22.85;63.02;101551.34;5006997;28;20041;-67
2023/08/12 03:14:44;;;;;;;5.13;3.20;;;;;;;22.86;63.42;101553.88;5006785;28;20116;-67
2023/08/12 03:17:09;;;;;;;5.97;2.75;;;;;;;22.84;63.31;101550.47;5006692;28;20144;-68
2023/08/12 03:19:35;;;;;;;6.55;2.88;;;;;;;22.85;63.21;101543.38;5007251;28;20029;-68
2023/08/12 03:22:01;;;;;;;4.78;2.80;;;;;;;22.86;63.22;101543.22;5007170;28;20030;-66
2023/08/12 03:24:26;;;;;;;4.63;2.92;;;;;;;22.87;62.92;101538.75;5007205;28;20120;-67
2023/08/12 03:26:51;;;;;;;4.63;2.65;;;;;;;22.84;63.37;101537.19;5007510;28;20046;-68
2023/08/12 03:29:17;;;;;;;6.40;2.97;;;;;;;22.86;63.04;101529.09;5006964;28;20038;-67
2023/08/12 03:31:42;;;;;;;7.50;3.38;;;;;;;22.85;63.28;101530.91;5022076;28;20034;-68
2023/08/12 03:34:07;;;;;;;4.57;3.03;;;;;;;22.85;63.33;101530.91;5007216;28;20037;-68
2023/08/12 03:36:33;;;;;;;4.72;3.05;;;;;;;22.86;63.18;101526.44;5006997;28;20056;-67
2023/08/12 03:38:58;;;;;;;5.05;3.00;;;;;;;22.84;63.14;101513.28;5007137;28;20080;-69
2023/08/12 03:41:23;;;;;;;4.60;2.72;;;;;;;22.85;62.82;101514.13;5007058;28;20037;-69
2023/08/12 03:43:49;;;;;;;4.50;2.63;;;;;;;22.85;62.94;101511.47;5006791;28;20029;-68
2023/08/12 03:46:16;;;;;;;5.53;3.08;;;;;;;22.85;63.11;101509.66;5006330;28;20501;-69
2023/08/12 03:48:42;;;;;;;4.88;2.70;;;;;;;22.85;63.13;101514.97;5006716;28;20726;-69
2023/08/12 03:51:07;;;;;;;5.38;3.00;;;;;;;22.85;62.98;101507.00;5006853;28;20033;-69
2023/08/12 03:53:32;;;;;;;4.10;2.50;;;;;;;22.85;63.27;101508.81;5005676;28;20045;-68
2023/08/12 03:55:58;;;;;;;5.35;3.08;;;;;;;22.86;63.17;101498.06;5007430;28;20025;-68
2023/08/12 03:58:23;;;;;;;5.32;3.10;;;;;;;22.85;63.27;101496.38;5006911;28;20041;-69
2023/08/12 04:00:48;;;;;;;5.43;2.80;;;;;;;22.86;62.94;101510.47;5006737;28;20076;-68
2023/08/12 04:03:13;;;;;;;4.97;2.92;;;;;;;22.85;63.20;101500.84;5006649;28;20287;-69
2023/08/12 04:05:48;;;;;;;5.80;3.03;;;;;;;22.84;63.32;101507.97;5006412;28;20475;-69
2023/08/12 04:08:13;;;;;;;5.70;2.95;;;;;;;22.86;63.11;101497.19;5006485;28;20103;-69
2023/08/12 04:10:38;;;;;;;4.35;2.80;;;;;;;22.84;62.98;101492.03;5006746;28;20434;-68
2023/08/12 04:13:04;;;;;;;4.72;2.80;;;;;;;22.85;63.27;101479.59;5006405;28;20066;-69
2023/08/12 04:15:29;;;;;;;5.32;3.20;;;;;;;22.86;63.11;101467.97;5006519;28;20120;-69
2023/08/12 04:17:54;;;;;;;4.93;2.85;;;;;;;22.85;62.67;101480.41;5006489;28;20532;-69
2023/08/12 04:20:20;;;;;;;5.32;2.80;;;;;;;22.83;62.60;101483.22;5004989;28;20030;-68
2023/08/12 04:22:45;;;;;;;4.57;2.55;;;;;;;22.83;63.07;101485.06;5006481;28;20495;-68
2023/08/12 04:25:10;;;;;;;5.25;2.88;;;;;;;22.83;63.13;101485.88;5006605;28;20034;-69
2023/08/12 04:27:35;;;;;;;5.55;2.88;;;;;;;22.85;62.80;101487.56;5006129;28;20093;-69
2023/08/12 04:30:01;;;;;;;4.73;2.57;;;;;;;22.84;62.92;101476.06;5006424;28;20034;-69
2023/08/12 04:32:26;;;;;;;4.85;2.65;;;;;;;22.84;62.80;101484.06;5004862;28;20259;-68
2023/08/12 04:34:51;;;;;;;4.03;2.40;;;;;;;22.85;62.94;101492.88;5005978;28;20117;-68
2023/08/12 04:37:17;;;;;;;6.57;2.80;;;;;;;22.85;63.24;101500.84;5006260;28;20100;-68
2023/08/12 04:39:42;;;;;;;4.25;2.50;;;;;;;22.84;63.02;101500.00;5006554;28;20263;-69
2023/08/12 04:42:07;;;;;;;5.25;2.80;;;;;;;22.83;62.81;101480.56;5006550;28;20112;-68
2023/08/12 04:44:33;;;;;;;4.13;2.50;;;;;;;22.83;62.67;101467.28;5005758;28;20053;-68
2023/08/12 04:46:58;;;;;;;5.57;2.80;;;;;;;22.80;63.15;101459.59;5005417;28;20168;-69
2023/08/12 04:49:23;;;;;;;5.20;3.00;;;;;;;22.83;63.12;101472.59;5005975;28;20034;-69
2023/08/12 04:51:51;;;;;;;5.38;2.78;;;;;;;22.82;62.80;101470.91;5004673;28;20747;-69
2023/08/12 04:54:16;;;;;;;5.45;2.83;;;;;;;22.82;62.61;101467.41;5003960;28;20030;-70
2023/08/12 04:56:42;;;;;;;4.72;2.78;;;;;;;22.83;62.91;101463.78;5006555;28;20375;-70
2023/08/12 04:59:08;;;;;;;4.93;2.90;;;;;;;22.83;62.61;101459.31;5005662;28;20041;-69
2023/08/12 05:01:33;;;;;;;5.40;2.92;;;;;;;22.82;62.96;101444.31;5005574;28;20034;-70
2023/08/12 05:03:59;;;;;;;5.75;2.67;;;;;;;22.83;62.48;101440.69;5004913;28;20034;-69
2023/08/12 05:06:24;;;;;;;4.68;2.85;;;;;;;22.82;62.59;101444.31;5005688;28;20034;-69
2023/08/12 05:08:49;;;;;;;5.38;2.60;;;;;;;22.84;62.84;101452.16;5005985;28;20041;-69
2023/08/12 05:11:15;;;;;;;6.00;3.13;;;;;;;22.82;63.07;101448.81;5004673;28;20026;-70
2023/08/12 05:13:40;;;;;;;4.88;2.60;;;;;;;22.82;62.99;101439.00;5005527;28;20057;-69
2023/08/12 05:16:05;;;;;;;5.15;2.50;;;;;;;22.85;62.48;101442.38;5005511;28;20084;-69
2023/08/12 05:18:31;;;;;;;4.70;2.60;;;;;;;22.85;62.54;101443.22;5004462;28;20018;-69
2023/08/12 05:20:56;;;;;;;4.78;2.80;;;;;;;22.84;62.52;101444.19;5005459;28;20414;-69
2023/08/12 05:23:22;;;;;;;4.72;2.90;;;;;;;22.83;62.74;101453.16;5005286;28;20026;-69
2023/08/12 05:25:47;;;;;;;4.97;2.72;;;;;;;22.85;62.55;101426.44;5005079;28;20037;-69
2023/08/12 05:28:12;;;;;;;4.27;2.70;;;;;;;22.85;62.92;101427.28;5005981;28;20037;-69
2023/08/12 05:30:38;;;;;;;5.63;2.90;;;;;;;22.84;62.97;101449.50;5005906;28;20350;-69
2023/08/12 05:33:04;;;;;;;4.63;2.50;;;;;;;22.84;63.04;101444.19;5005179;28;20268;-70
2023/08/12 05:35:33;;;;;;;4.65;2.85;;;;;;;22.82;62.47;101436.34;5006401;28;20030;-69
2023/08/12 05:37:59;;;;;;;5.20;2.97;;;;;;;22.83;62.57;101438.03;5005852;28;20084;-69
2023/08/12 05:40:24;;;;;;;4.75;2.55;;;;;;;22.81;62.66;101428.53;5008844;28;20467;-69
2023/08/12 05:42:49;;;;;;;5.35;2.72;;;;;;;22.85;62.60;101439.72;5008886;28;20034;-70
2023/08/12 05:45:15;;;;;;;5.65;3.00;;;;;;;22.85;62.90;101432.59;5007791;28;20441;-69
2023/08/12 05:47:41;;;;;;;5.18;2.78;;;;;;;22.83;63.00;101434.56;5008375;28;20026;-68
2023/08/12 05:50:06;;;;;;;4.70;2.65;;;;;;;22.85;62.91;101424.63;5008393;28;20100;-69
2023/08/12 05:52:32;;;;;;;4.78;2.55;;;;;;;22.83;62.80;101432.72;5009080;28;20490;-68
2023/08/12 05:54:58;;;;;;;4.35;2.70;;;;;;;22.84;62.58;101425.59;5009177;28;20052;-70
2023/08/12 05:57:23;;;;;;;4.97;2.42;;;;;;;22.85;62.75;101429.09;5007861;28;20652;-68
2023/08/12 05:59:48;;;;;;;5.25;2.67;;;;;;;22.83;62.67;101426.59;5008746;28;20033;-69
2023/08/12 06:02:14;;;;;;;5.30;2.40;;;;;;;22.84;62.44;101436.22;5008525;28;20038;-69
2023/08/12 06:04:39;;;;;;;4.47;2.47;;;;;;;22.85;62.71;101426.44;5009093;28;20034;-68
2023/08/12 06:07:04;;;;;;;4.47;2.47;;;;;;;22.85;62.94;101423.78;5008874;28;20076;-68
2023/08/12 06:09:30;;;;;;;4.63;2.17;;;;;;;22.85;62.64;101423.78;5008446;28;20046;-69
2023/08/12 06:11:55;;;;;;;4.72;2.47;;;;;;;22.85;62.39;101419.31;5008697;28;20037;-68
2023/08/12 06:14:20;;;;;;;4.15;2.47;;;;;;;22.84;62.71;101414.97;5008596;28;20064;-68
2023/08/12 06:16:45;;;;;;;4.78;2.65;;;;;;;22.84;62.90;101412.31;5007051;28;20120;-69
2023/08/12 06:19:11;;;;;;;4.80;2.53;;;;;;;22.86;62.90;101414.81;5008452;28;20044;-69
2023/08/12 06:21:36;;;;;;;4.43;2.50;;;;;;;22.83;62.34;101403.50;5008352;28;20533;-69
2023/08/12 06:24:01;;;;;;;4.30;2.25;;;;;;;22.85;62.63;101410.50;5008701;28;20267;-70
2023/08/12 06:26:27;;;;;;;4.45;2.25;;;;;;;22.84;62.44;101404.31;5008048;28;20037;-68
2023/08/12 06:28:52;;;;;;;3.87;2.20;;;;;;;22.84;62.54;101399.00;5008545;28;20592;-69
2023/08/12 06:31:17;;;;;;;5.30;2.10;;;;;;;22.84;62.34;101391.03;5008106;28;20267;-69
2023/08/12 06:33:42;;;;;;;5.25;2.63;;;;;;;22.81;62.63;101384.22;5006838;28;20402;-69
2023/08/12 06:36:08;;;;;;;4.72;2.33;;;;;;;22.85;63.24;101387.41;5008338;28;20113;-69
2023/08/12 06:38:33;;;;;;;5.07;2.78;;;;;;;22.84;63.14;101385.72;5008202;28;20030;-70
2023/08/12 06:40:58;;;;;;;4.10;2.10;;;;;;;22.84;63.40;101388.38;5008344;28;20038;-69
2023/08/12 06:43:24;;;;;;;4.30;2.42;;;;;;;22.86;63.10;101388.25;5008020;28;20029;-67
2023/08/12 06:45:49;;;;;;;3.78;2.00;;;;;;;22.83;63.02;101386.72;5008040;28;20046;-68
2023/08/12 06:48:14;;;;;;;5.45;2.58;;;;;;;22.84;63.35;101391.03;5007490;28;20050;-68
2023/08/12 06:50:39;;;;;;;4.68;2.20;;;;;;;22.84;63.24;101388.38;5007237;28;20072;-69
2023/08/12 06:53:05;;;;;;;4.22;2.47;;;;;;;22.82;63.46;101385.03;5007742;28;20026;-69
2023/08/12 06:55:30;;;;;;;4.90;2.58;;;;;;;22.82;63.75;101377.06;5007282;28;20029;-68
2023/08/12 06:57:55;;;;;;;4.65;2.22;;;;;;;22.85;63.74;101371.47;5008317;28;20026;-68
2023/08/12 07:00:21;;;;;;;4.75;2.15;;;;;;;22.85;63.73;101378.63;5006454;28;20437;-68
2023/08/12 07:02:46;;;;;;;4.60;2.10;;;;;;;22.85;63.37;101373.31;5007884;28;20045;-69
2023/08/12 07:05:11;;;;;;;3.80;2.10;;;;;;;22.84;63.76;101372.44;5006499;28;20030;-69
2023/08/12 07:07:37;;;;;;;4.53;2.40;;;;;;;22.85;63.41;101375.97;5005183;28;20025;-69
2023/08/12 07:10:03;;;;;;;4.43;2.17;;;;;;;22.84;63.98;101367.13;5006038;28;20034;-68
2023/08/12 07:12:28;;;;;;;3.63;2.17;;;;;;;22.84;63.62;101364.47;5007548;28;20033;-67
2023/08/12 07:14:53;;;;;;;4.65;2.22;;;;;;;22.84;63.95;101375.09;5008043;28;20378;-67
2023/08/12 07:17:19;;;;;;;5.07;2.40;;;;;;;22.83;64.20;101374.28;5007459;28;20167;-67
2023/08/12 07:19:44;;;;;;;4.13;2.23;;;;;;;22.83;64.12;101371.59;5007706;28;20034;-68
2023/08/12 07:22:09;;;;;;;5.03;2.10;;;;;;;22.82;64.27;101369.94;5007801;28;20275;-67
2023/08/12 07:24:36;;;;;;;5.22;2.10;;;;;;;22.85;64.23;101365.31;5007208;28;20278;-68
2023/08/12 07:27:01;;;;;;;4.10;2.10;;;;;;;22.84;64.32;101375.09;5007564;28;20088;-68
2023/08/12 07:29:26;;;;;;;5.18;2.10;;;;;;;22.84;64.66;101375.09;5006948;28;20038;-68
2023/08/12 07:31:52;;;;;;;6.28;2.30;;;;;;;22.86;64.59;101374.94;5007153;28;20052;-68
2023/08/12 07:34:18;;;;;;;4.60;2.35;;;;;;;22.86;64.82;101374.94;5006795;28;20033;-68
2023/08/12 07:36:43;;;;;;;4.32;2.25;;;;;;;22.84;65.03;101367.13;5006212;28;20486;-68
2023/08/12 07:39:08;;;;;;;5.03;2.25;;;;;;;22.86;64.71;101370.50;5007188;28;20037;-68
2023/08/12 07:41:34;;;;;;;4.63;2.10;;;;;;;22.87;64.74;101377.47;5007398;28;20113;-68
2023/08/12 07:43:59;;;;;;;3.78;2.00;;;;;;;22.86;64.82;101370.50;5005932;28;20065;-68
2023/08/12 07:46:24;;;;;;;3.92;2.10;;;;;;;22.86;65.27;101370.50;5004573;28;20100;-67
2023/08/12 07:48:50;;;;;;;3.63;2.10;;;;;;;22.88;65.26;101371.19;5004727;28;20029;-67
2023/08/12 07:51:15;;;;;;;5.00;2.25;;;;;;;22.88;65.24;101367.69;5007400;28;20033;-68
2023/08/12 07:53:40;;;;;;;4.38;2.20;;;;;;;22.88;65.37;101370.34;5006836;28;20074;-68
2023/08/12 07:56:06;;;;;;;3.70;2.10;;;;;;;22.88;64.92;101367.69;5006951;28;20040;-68
2023/08/12 07:58:31;;;;;;;4.60;2.40;;;;;;;22.89;65.05;101374.66;5009970;28;20513;-66
2023/08/12 08:00:57;;;;;;;5.60;2.00;;;;;;;22.89;65.17;101380.84;5007597;28;20398;-67
2023/08/12 08:03:22;;;;;;;4.25;2.00;;;;;;;22.88;65.21;101381.00;5006554;28;20021;-69
2023/08/12 08:05:48;;;;;;;4.43;2.30;;;;;;;22.90;65.49;101389.66;5005824;28;20471;-68
2023/08/12 08:08:14;;;;;;;4.15;2.03;;;;;;;22.89;65.34;101385.31;5005987;28;20049;-67
2023/08/12 08:10:39;;;;;;;4.15;2.00;;;;;;;22.89;64.90;101387.97;5007009;28;20116;-68
2023/08/12 08:13:04;;;;;;;4.10;1.88;;;;;;;22.88;65.04;101389.78;5005002;28;20377;-68
2023/08/12 08:15:30;;;;;;;3.83;2.20;;;;;;;22.90;65.11;101387.00;5005982;28;20068;-67
2023/08/12 08:17:55;;;;;;;4.47;2.20;;;;;;;22.89;66.01;101388.81;5006493;28;20459;-67
2023/08/12 08:20:21;;;;;;;4.70;2.03;;;;;;;22.89;65.51;101398.59;5006917;28;20042;-68
2023/08/12 08:22:47;;;;;;;3.65;1.88;;;;;;;22.91;64.74;101396.66;5005830;28;20073;-67
2023/08/12 08:25:12;;;;;;;4.32;1.73;;;;;;;22.89;65.25;101402.09;5006214;28;20057;-68
2023/08/12 08:27:38;;;;;;;3.67;1.90;;;;;;;22.91;65.16;101402.78;5006437;28;20070;-68
2023/08/12 08:30:04;;;;;;;5.78;2.10;;;;;;;22.91;64.94;101399.31;5005889;28;20056;-67
2023/08/12 08:32:29;;;;;;;4.03;2.05;;;;;;;22.91;64.92;101404.63;5006652;28;20413;-67
2023/08/12 08:34:55;;;;;;;5.28;1.80;;;;;;;22.94;65.54;101404.31;5004571;28;20030;-67
2023/08/12 08:37:21;;;;;;;4.10;1.98;;;;;;;22.99;65.16;101399.44;5006271;28;20040;-67
2023/08/12 08:39:46;;;;;;;5.45;2.20;;;;;;;23.04;65.06;101407.78;5004895;28;20109;-68
2023/08/12 08:42:14;;;;;;;4.90;1.80;;;;;;;23.06;65.30;101405.00;5005228;28;20061;-67
2023/08/12 08:44:41;;;;;;;4.32;1.92;;;;;;;23.08;64.70;101406.56;5005811;28;20314;-68
2023/08/12 08:47:08;;;;;;;5.53;2.00;;;;;;;23.09;65.27;101418.88;5005746;28;20475;-68
2023/08/12 08:49:35;;;;;;;3.28;1.95;;;;;;;23.11;64.69;101414.22;5005541;28;20045;-68
2023/08/12 08:52:01;;;;;;;4.65;2.10;;;;;;;23.12;65.08;101415.09;5005663;28;20033;-68
2023/08/12 08:54:27;;;;;;;4.10;1.98;;;;;;;23.15;65.12;101420.13;5005169;28;20163;-68
2023/08/12 08:56:52;;;;;;;7.45;2.08;;;;;;;23.16;64.90;101424.44;5005684;28;20475;-70
2023/08/12 08:59:18;;;;;;;4.95;1.90;;;;;;;23.16;64.96;101416.47;5003793;28;20037;-68
2023/08/12 09:01:46;;;;;;;2.92;1.88;;;;;;;23.17;64.63;101410.16;5003247;28;20030;-68
2023/08/12 09:04:13;;;;;;;3.90;2.00;;;;;;;23.18;64.60;101415.34;5005242;28;20041;-69
2023/08/12 09:06:40;;;;;;;4.30;2.10;;;;;;;23.14;64.57;101424.56;5004325;28;20461;-69
2023/08/12 09:09:12;;;;;;;5.03;2.08;;;;;;;23.14;64.52;101432.56;5005320;28;20489;-68
2023/08/12 09:11:38;;;;;;;3.50;1.70;;;;;;;23.17;64.07;101434.09;5005659;28;20034;-69
2023/08/12 09:14:05;;;;;;;3.28;1.75;;;;;;;23.20;64.39;101433.81;5006618;28;20038;-69
2023/08/12 09:16:30;;;;;;;3.58;1.73;;;;;;;23.20;64.51;101436.47;5007138;28;20026;-69
2023/08/12 09:18:56;;;;;;;3.75;2.08;;;;;;;23.20;64.21;101449.75;5008855;28;20061;-70
2023/08/12 09:21:23;;;;;;;3.55;1.77;;;;;;;23.21;63.99;101455.91;5008757;28;20041;-69
2023/08/12 09:23:48;;;;;;;3.72;1.90;;;;;;;23.21;64.06;101464.75;5008881;28;20045;-68
2023/08/12 09:26:18;;;;;;;4.43;1.90;;;;;;;23.22;64.19;101453.13;5008898;28;20030;-68
2023/08/12 09:28:44;;;;;;;3.58;1.70;;;;;;;23.26;64.12;101453.69;5007643;28;20128;-69
2023/08/12 09:31:32;;;;;;;3.53;1.80;;;;;;;23.26;64.14;101459.00;5008978;28;20494;-70
2023/08/12 09:34:04;;;;;;;5.55;1.90;;;;;;;23.25;64.12;101458.16;5007763;28;20034;-68
2023/08/12 09:36:30;;;;;;;5.63;1.88;;;;;;;23.25;63.84;101462.63;5008995;28;20026;-66
2023/08/12 09:38:58;;;;;;;3.50;1.90;;;;;;;23.26;64.38;101461.66;5007329;28;20033;-68
2023/08/12 09:41:24;;;;;;;3.25;1.70;;;;;;;23.24;64.38;101461.81;5006918;28;20501;-68
2023/08/12 09:43:51;;;;;;;4.30;2.00;;;;;;;23.26;64.16;101461.66;5007248;28;20030;-68
2023/08/12 09:46:17;;;;;;;3.47;1.80;;;;;;;23.26;63.95;101469.63;5008044;28;20034;-69
2023/08/12 09:48:43;;;;;;;3.03;1.60;;;;;;;23.22;64.16;101453.13;5008680;28;20041;-66
2023/08/12 09:51:09;;;;;;;5.55;1.80;;;;;;;23.22;64.57;101469.06;5008493;28;20034;-67
2023/08/12 09:53:34;;;;;;;3.88;1.50;;;;;;;23.24;64.28;101466.25;5008137;28;20037;-67
2023/08/12 09:56:07;;;;;;;3.95;1.63;;;;;;;23.25;64.17;101470.63;5009596;28;20061;-68
2023/08/12 09:58:36;;;;;;;3.33;1.48;;;;;;;23.28;63.99;101462.34;5006760;28;20038;-69
2023/08/12 10:01:03;;;;;;;3.05;1.60;;;;;;;23.31;63.69;101465.56;5007740;28;20371;-70
2023/08/12 10:03:30;;;;;;;2.95;1.60;;;;;;;23.30;64.52;101474.50;5008325;28;20533;-68
2023/08/12 10:05:56;;;;;;;4.72;1.50;;;;;;;23.30;64.11;101477.16;5007155;28;20038;-68
2023/08/12 10:08:22;;;;;;;3.72;1.50;;;;;;;23.32;64.33;101475.22;5006879;28;20033;-69
2023/08/12 10:10:48;;;;;;;6.90;2.00;;;;;;;23.30;64.65;101469.19;5007972;28;20479;-68
2023/08/12 10:13:14;;;;;;;4.40;1.77;;;;;;;23.34;64.44;101486.53;5007938;28;20053;-69
2023/08/12 10:15:40;;;;;;;3.30;1.77;;;;;;;23.38;64.32;101478.28;5007838;28;20397;-68
2023/08/12 10:18:06;;;;;;;3.35;1.40;;;;;;;23.38;64.22;101475.63;5007669;28;20026;-69
2023/08/12 10:20:32;;;;;;;2.92;1.55;;;;;;;23.36;64.57;101473.94;5007232;28;20061;-67
2023/08/12 10:22:59;;;;;;;2.97;1.58;;;;;;;23.38;64.19;101475.63;5007884;28;20048;-70
2023/08/12 10:25:30;;;;;;;4.25;1.42;;;;;;;23.39;64.16;101486.09;5006882;28;20036;-66
2023/08/12 10:27:55;;;;;;;3.35;1.48;;;;;;;23.40;63.82;101470.97;5005163;28;20124;-67
2023/08/12 10:30:21;;;;;;;3.22;1.45;;;;;;;23.37;64.26;101472.13;5007542;28;20113;-67
2023/08/12 10:32:47;;;;;;;5.90;2.55;;;;;;;23.38;63.95;101464.97;5007708;28;20502;-67
2023/08/12 10:35:13;;;;;;;9.07;6.68;;;;;;;23.37;63.79;101461.50;5006984;28;20080;-66
2023/08/12 10:37:39;;;;;;;58.40;44.22;;;;;;;23.35;64.35;101471.41;5008524;28;20030;-66
2023/08/12 10:40:08;;;;;;;71.18;59.38;;;;;;;23.30;64.16;101461.19;5007878;28;20537;-68
2023/08/12 10:42:45;;;;;;;88.20;72.63;;;;;;;23.29;64.56;101467.53;5008573;28;20595;-67
2023/08/12 10:45:13;;;;;;;86.30;73.68;;;;;;;23.30;64.59;101476.31;5007935;28;20135;-68
2023/08/12 10:47:46;;;;;;;87.53;74.88;;;;;;;23.30;64.73;101473.66;5008241;28;20053;-66
2023/08/12 10:50:22;;;;;;;80.95;71.03;;;;;;;23.30;65.24;101474.50;5008461;28;20037;-68
2023/08/12 10:52:51;;;;;;;76.70;67.57;;;;;;;23.35;64.47;101476.72;5006748;28;20045;-67
2023/08/12 10:55:25;;;;;;;73.82;62.63;;;;;;;23.35;64.87;101482.06;5007716;28;20475;-69
2023/08/12 10:57:53;;;;;;;70.30;61.58;;;;;;;23.38;64.91;101475.63;5007655;28;20128;-66
2023/08/12 11:00:22;;;;;;;66.30;58.17;;;;;;;23.39;64.91;101477.31;5007696;28;20041;-68
2023/08/12 11:02:58;;;;;;;69.38;59.22;;;;;;;23.40;64.74;101486.94;5007497;28;20072;-69
2023/08/12 11:05:39;;;;;;;57.67;50.02;;;;;;;23.40;64.91;101494.91;796552;28;10002917;-69
2023/08/12 11:08:05;;;;;;;61.30;54.58;;;;;;;23.39;64.69;101493.25;3795879;28;10001411;-68
2023/08/12 11:10:32;;;;;;;62.72;52.53;;;;;;;23.37;64.54;101493.41;5007440;28;20026;-69
2023/08/12 11:12:58;;;;;;;59.33;48.97;;;;;;;23.40;64.54;101498.44;5005093;28;20063;-69
2023/08/12 11:15:38;;;;;;;56.30;48.38;;;;;;;23.42;64.42;101488.47;4990236;28;20204;-68
2023/08/12 11:18:05;;;;;;;53.38;46.30;;;;;;;23.45;64.11;101482.03;5001805;28;20163;-69
2023/08/12 11:20:31;;;;;;;50.33;43.20;;;;;;;23.45;63.75;101485.53;5006061;28;20148;-68